createdAt,value
2022-08-25T00:02:12.311Z,24.00
2022-08-25T00:04:38.892Z,23.99
2022-08-25T00:07:07.525Z,23.99
2022-08-25T00:09:35.301Z,23.97
2022-08-25T00:12:02.966Z,23.96
2022-08-25T00:14:34.043Z,23.93
2022-08-25T00:17:01.091Z,23.87
2022-08-25T00:19:32.136Z,23.85
2022-08-25T00:21:59.057Z,23.81
2022-08-25T00:24:25.649Z,23.79
2022-08-25T00:26:55.087Z,23.78
2022-08-25T00:29:22.448Z,23.77
2022-08-25T00:31:49.019Z,23.74
2022-08-25T00:34:20.175Z,23.70
2022-08-25T00:36:47.246Z,23.60
2022-08-25T00:39:14.236Z,23.58
2022-08-25T00:41:42.714Z,23.54
2022-08-25T00:44:12.158Z,23.51
2022-08-25T00:46:50.957Z,23.47
2022-08-25T00:49:25.374Z,23.44
2022-08-25T00:52:01.360Z,23.36
2022-08-25T00:54:39.079Z,23.30
2022-08-25T00:57:07.812Z,23.23
2022-08-25T00:59:34.841Z,23.18
2022-08-25T01:02:02.538Z,23.14
2022-08-25T01:04:29.744Z,23.04
2022-08-25T01:06:58.092Z,22.98
2022-08-25T01:09:24.942Z,22.88
2022-08-25T01:11:52.851Z,22.76
2022-08-25T01:14:21.611Z,22.80
2022-08-25T01:16:51.065Z,22.79
2022-08-25T01:19:21.416Z,22.76
2022-08-25T01:21:52.566Z,22.68
2022-08-25T01:24:37.614Z,22.56
2022-08-25T01:27:04.688Z,22.49
2022-08-25T01:29:32.061Z,22.49
2022-08-25T01:32:01.750Z,22.47
2022-08-25T01:34:31.564Z,22.45
2022-08-25T01:36:59.896Z,22.41
2022-08-25T01:39:29.076Z,22.37
2022-08-25T01:42:09.109Z,22.18
2022-08-25T01:44:39.207Z,21.97
2022-08-25T01:47:06.356Z,21.95
2022-08-25T01:49:33.152Z,21.99
2022-08-25T01:52:15.661Z,22.04
2022-08-25T01:54:42.240Z,22.06
2022-08-25T01:57:09.094Z,22.04
2022-08-25T01:59:35.608Z,21.88
2022-08-25T02:02:02.546Z,21.72
2022-08-25T02:04:32.598Z,21.77
2022-08-25T02:07:05.530Z,21.73
2022-08-25T02:09:32.496Z,21.76
2022-08-25T02:11:59.193Z,21.73
2022-08-25T02:14:26.090Z,21.65
2022-08-25T02:16:53.994Z,21.45
2022-08-25T02:19:22.610Z,21.44
2022-08-25T02:21:49.254Z,21.39
2022-08-25T02:24:16.575Z,21.33
2022-08-25T02:26:44.061Z,21.27
2022-08-25T02:29:10.854Z,21.20
2022-08-25T02:31:37.711Z,21.16
2022-08-25T02:34:06.335Z,21.10
2022-08-25T02:36:33.320Z,21.08
2022-08-25T02:39:00.830Z,21.08
2022-08-25T02:41:30.928Z,20.99
2022-08-25T02:44:03.488Z,21.00
2022-08-25T02:46:30.939Z,21.07
2022-08-25T02:48:57.939Z,20.91
2022-08-25T02:51:26.032Z,20.84
2022-08-25T02:53:52.668Z,20.71
2022-08-25T02:56:20.382Z,20.68
2022-08-25T02:58:47.968Z,20.72
2022-08-25T03:01:15.419Z,20.57
2022-08-25T03:03:44.390Z,20.44
2022-08-25T03:06:13.396Z,20.62
2022-08-25T03:08:41.701Z,20.61
2022-08-25T03:11:08.336Z,20.59
2022-08-25T03:13:35.260Z,20.72
2022-08-25T03:16:03.104Z,20.78
2022-08-25T03:18:30.792Z,20.79
2022-08-25T03:20:57.849Z,20.72
2022-08-25T03:23:24.530Z,20.67
2022-08-25T03:26:09.263Z,20.51
2022-08-25T03:28:36.420Z,20.40
2022-08-25T03:31:03.058Z,20.33
2022-08-25T03:33:30.808Z,20.24
2022-08-25T03:35:57.924Z,20.21
2022-08-25T03:38:25.367Z,20.28
2022-08-25T03:40:52.738Z,20.18
2022-08-25T03:43:19.824Z,20.09
2022-08-25T03:45:47.698Z,20.23
2022-08-25T03:48:15.498Z,20.29
2022-08-25T03:50:51.487Z,20.26
2022-08-25T03:53:19.603Z,20.11
2022-08-25T03:55:46.233Z,20.08
2022-08-25T03:58:12.837Z,20.02
2022-08-25T04:00:39.407Z,20.06
2022-08-25T04:03:06.645Z,20.10
2022-08-25T04:05:33.587Z,20.08
2022-08-25T04:08:01.919Z,20.13
2022-08-25T04:10:29.028Z,20.17
2022-08-25T04:12:56.101Z,20.17
2022-08-25T04:15:22.736Z,20.28
2022-08-25T04:17:51.908Z,20.23
2022-08-25T04:20:18.922Z,20.28
2022-08-25T04:22:45.473Z,20.23
2022-08-25T04:25:12.617Z,20.06
2022-08-25T04:27:39.075Z,19.95
2022-08-25T04:30:06.639Z,19.88
2022-08-25T04:32:35.210Z,19.88
2022-08-25T04:35:01.729Z,19.83
2022-08-25T04:37:28.232Z,19.88
2022-08-25T04:39:54.711Z,19.80
2022-08-25T04:42:21.703Z,19.81
2022-08-25T04:44:48.708Z,19.89
2022-08-25T04:47:15.183Z,19.90
2022-08-25T04:49:41.706Z,19.89
2022-08-25T04:52:13.183Z,19.92
2022-08-25T04:54:41.603Z,19.91
2022-08-25T04:57:08.079Z,19.89
2022-08-25T04:59:34.674Z,19.91
2022-08-25T05:02:05.418Z,19.97
2022-08-25T05:04:33.837Z,19.98
2022-08-25T05:07:01.204Z,19.88
2022-08-25T05:09:28.159Z,19.92
2022-08-25T05:11:54.991Z,19.99
2022-08-25T05:14:23.202Z,20.06
2022-08-25T05:16:53.285Z,20.10
2022-08-25T05:19:19.995Z,20.12
2022-08-25T05:21:46.491Z,20.10
2022-08-25T05:24:12.969Z,20.08
2022-08-25T05:26:39.717Z,20.05
2022-08-25T05:29:06.831Z,20.12
2022-08-25T05:31:34.914Z,20.09
2022-08-25T05:34:08.204Z,20.08
2022-08-25T05:36:35.243Z,20.10
2022-08-25T05:39:02.026Z,20.13
2022-08-25T05:41:30.695Z,20.14
2022-08-25T05:43:57.722Z,20.17
2022-08-25T05:46:24.604Z,20.17
2022-08-25T05:48:51.444Z,20.14
2022-08-25T05:51:18.230Z,20.19
2022-08-25T05:53:47.739Z,20.19
2022-08-25T05:56:14.583Z,20.22
2022-08-25T05:58:42.088Z,20.32
2022-08-25T06:01:28.191Z,20.42
2022-08-25T06:03:54.884Z,20.49
2022-08-25T06:06:24.280Z,20.53
2022-08-25T06:08:51.558Z,20.60
2022-08-25T06:11:18.492Z,20.66
2022-08-25T06:13:45.570Z,20.70
2022-08-25T06:16:12.396Z,20.77
2022-08-25T06:18:38.955Z,20.81
2022-08-25T06:21:14.219Z,20.85
2022-08-25T06:23:41.580Z,20.91
2022-08-25T06:26:13.194Z,20.95
2022-08-25T06:28:47.596Z,21.00
2022-08-25T06:31:14.749Z,21.03
2022-08-25T06:33:41.284Z,21.06
2022-08-25T06:36:08.657Z,21.10
2022-08-25T06:38:35.411Z,21.14
2022-08-25T06:41:03.997Z,21.21
2022-08-25T06:43:30.500Z,21.27
2022-08-25T06:45:57.113Z,21.32
2022-08-25T06:48:23.988Z,21.35
2022-08-25T06:50:50.811Z,21.37
2022-08-25T06:53:17.303Z,21.45
2022-08-25T06:55:43.767Z,21.51
2022-08-25T06:58:11.231Z,21.53
2022-08-25T07:00:38.186Z,21.63
2022-08-25T07:03:05.075Z,21.67
2022-08-25T07:05:42.929Z,21.85
2022-08-25T07:08:11.898Z,21.95
2022-08-25T07:10:38.841Z,21.94
2022-08-25T07:13:05.308Z,21.93
2022-08-25T07:15:31.756Z,21.91
2022-08-25T07:17:58.409Z,21.98
2022-08-25T07:22:57.845Z,22.20
2022-08-25T07:25:24.402Z,22.25
2022-08-25T07:27:50.997Z,22.22
2022-08-25T07:30:18.531Z,22.27
2022-08-25T07:32:45.115Z,22.32
2022-08-25T07:35:19.547Z,22.27
2022-08-25T07:37:52.438Z,22.36
2022-08-25T07:40:23.678Z,22.45
2022-08-25T07:42:52.487Z,22.44
2022-08-25T07:45:21.188Z,22.49
2022-08-25T07:47:48.303Z,22.51
2022-08-25T07:50:18.866Z,22.61
2022-08-25T07:52:49.729Z,22.71
2022-08-25T07:55:20.705Z,22.66
2022-08-25T07:57:48.980Z,22.58
2022-08-25T10:15:30.887Z,24.18
2022-08-25T10:18:27.908Z,24.44
2022-08-25T10:21:08.540Z,24.57
2022-08-25T10:23:38.727Z,24.58
2022-08-25T10:26:14.447Z,24.75
2022-08-25T10:28:49.389Z,24.88
2022-08-25T10:31:51.919Z,24.77
2022-08-25T10:34:39.055Z,24.81
2022-08-25T10:37:38.400Z,24.79
2022-08-25T10:40:11.820Z,24.75
2022-08-25T10:42:47.840Z,24.71
2022-08-25T10:45:41.506Z,24.69
2022-08-25T10:48:13.031Z,24.84
2022-08-25T10:50:58.341Z,24.88
2022-08-25T10:53:47.637Z,24.91
2022-08-25T10:56:21.507Z,24.79
2022-08-25T10:59:01.451Z,25.05
2022-08-25T11:01:43.654Z,25.27
2022-08-25T11:04:25.979Z,25.23
2022-08-25T11:07:06.532Z,25.33
2022-08-25T11:09:39.316Z,25.29
2022-08-25T11:12:16.244Z,25.23
2022-08-25T11:14:54.248Z,25.24
2022-08-25T11:17:29.262Z,25.25
2022-08-25T11:20:03.870Z,25.17
2022-08-25T11:22:40.789Z,25.08
2022-08-25T11:25:46.066Z,25.11
2022-08-25T11:28:31.238Z,25.70
2022-08-25T11:31:00.483Z,26.01
2022-08-25T11:33:30.402Z,25.91
2022-08-25T11:36:02.499Z,25.84
2022-08-25T11:39:00.649Z,25.88
2022-08-25T11:41:46.258Z,25.86
2022-08-25T11:44:38.453Z,25.94
2022-08-25T11:47:24.423Z,26.06
2022-08-25T11:50:03.617Z,26.05
2022-08-25T11:52:33.191Z,26.05
2022-08-25T11:55:48.338Z,26.40
2022-08-25T11:58:14.790Z,26.37
2022-08-25T12:00:44.179Z,26.45
2022-08-25T12:03:29.549Z,26.28
2022-08-25T12:06:24.969Z,26.17
2022-08-25T12:09:00.830Z,26.31
2022-08-25T12:11:49.239Z,26.57
2022-08-25T12:14:21.980Z,26.55
2022-08-25T12:16:51.753Z,26.66
2022-08-25T12:19:24.653Z,26.64
2022-08-25T12:21:53.022Z,26.74
2022-08-25T12:24:47.557Z,26.95
2022-08-25T12:27:52.505Z,27.36
2022-08-25T12:30:28.575Z,27.44
2022-08-25T12:33:10.512Z,27.63
2022-08-25T12:35:51.555Z,28.07
2022-08-25T12:38:30.219Z,28.45
2022-08-25T12:41:08.507Z,28.82
2022-08-25T12:43:39.832Z,29.24
2022-08-25T12:46:25.776Z,29.46
2022-08-25T12:48:58.543Z,29.69
2022-08-25T12:51:28.177Z,29.84
2022-08-25T12:54:11.292Z,29.89
2022-08-25T12:56:47.783Z,29.93
2022-08-25T12:59:19.460Z,30.10
2022-08-25T13:01:56.547Z,30.34
2022-08-25T13:04:26.048Z,30.43
2022-08-25T13:07:20.496Z,30.58
2022-08-25T13:10:02.306Z,30.70
2022-08-25T13:12:36.160Z,30.72
2022-08-25T13:15:04.447Z,30.81
2022-08-25T13:17:34.595Z,30.86
2022-08-25T13:20:12.647Z,30.80
2022-08-25T13:22:39.948Z,30.87
2022-08-25T13:25:06.825Z,30.93
2022-08-25T13:27:37.131Z,30.93
2022-08-25T13:30:05.272Z,30.82
2022-08-25T13:32:36.751Z,30.78
2022-08-25T13:35:25.569Z,30.77
2022-08-25T13:37:54.777Z,30.76
2022-08-25T13:40:26.937Z,30.70
2022-08-25T13:43:05.500Z,30.74
2022-08-25T13:45:41.223Z,30.64
2022-08-25T13:48:22.362Z,30.40
2022-08-25T13:50:52.115Z,30.33
2022-08-25T13:53:26.619Z,30.18
2022-08-25T13:56:03.080Z,30.06
2022-08-25T13:58:44.545Z,29.85
2022-08-25T14:01:22.671Z,29.66
2022-08-25T14:04:21.343Z,29.54
2022-08-25T14:06:48.545Z,29.49
2022-08-25T14:09:18.421Z,29.37
2022-08-25T14:11:58.605Z,29.31
2022-08-25T14:14:25.072Z,29.45
2022-08-25T14:17:16.342Z,29.39
2022-08-25T14:19:48.091Z,29.34
2022-08-25T14:22:15.882Z,29.26
2022-08-25T14:24:42.493Z,29.16
2022-08-25T14:27:08.935Z,29.05
2022-08-25T14:29:41.281Z,29.11
2022-08-25T14:32:09.977Z,29.11
2022-08-25T14:34:39.608Z,29.12
2022-08-25T14:37:16.356Z,29.16
2022-08-25T14:39:44.203Z,29.27
2022-08-25T14:42:12.265Z,29.19
2022-08-25T14:44:39.123Z,29.26
2022-08-25T14:47:07.578Z,29.13
2022-08-25T14:49:37.991Z,29.00
2022-08-25T14:52:19.841Z,29.15
2022-08-25T14:54:49.197Z,29.26
2022-08-25T14:57:15.683Z,29.30
2022-08-25T14:59:43.498Z,29.15
2022-08-25T15:02:14.136Z,29.24
2022-08-25T15:04:48.891Z,29.07
2022-08-25T15:07:34.494Z,28.93
2022-08-25T15:10:01.006Z,28.85
2022-08-25T15:12:46.482Z,28.81
2022-08-25T15:15:14.311Z,28.81
2022-08-25T15:17:41.976Z,28.76
2022-08-25T15:20:11.442Z,28.69
2022-08-25T15:22:37.916Z,28.58
2022-08-25T15:25:05.114Z,28.55
2022-08-25T15:27:32.000Z,28.57
2022-08-25T15:29:58.492Z,28.63
2022-08-25T15:32:25.036Z,28.63
2022-08-25T15:34:54.499Z,28.54
2022-08-25T15:37:20.976Z,28.52
2022-08-25T15:39:48.809Z,28.58
2022-08-25T15:42:16.524Z,28.71
2022-08-25T15:44:53.241Z,28.97
2022-08-25T15:47:20.524Z,29.04
2022-08-25T15:49:47.205Z,29.11
2022-08-25T15:52:13.777Z,29.15
2022-08-25T15:54:40.432Z,29.19
2022-08-25T15:57:09.130Z,29.15
2022-08-25T15:59:40.247Z,29.09
2022-08-25T16:02:14.883Z,29.00
2022-08-25T16:04:42.102Z,28.96
2022-08-25T16:07:09.835Z,28.96
2022-08-25T16:09:41.491Z,28.83
2022-08-25T16:12:08.460Z,28.88
2022-08-25T16:14:35.472Z,28.81
2022-08-25T16:17:02.030Z,28.94
2022-08-25T16:19:29.250Z,29.03
2022-08-25T16:21:55.990Z,29.26
2022-08-25T16:24:22.531Z,29.37
2022-08-25T16:26:50.142Z,29.43
2022-08-25T16:29:19.078Z,29.53
2022-08-25T16:31:55.042Z,29.52
2022-08-25T16:34:22.313Z,29.61
2022-08-25T16:36:52.312Z,29.71
2022-08-25T16:39:19.734Z,29.84
2022-08-25T16:41:47.265Z,29.94
2022-08-25T16:44:13.828Z,29.91
2022-08-25T16:46:41.901Z,29.88
2022-08-25T16:49:13.413Z,29.86
2022-08-25T16:51:41.216Z,29.81
2022-08-25T16:54:29.652Z,29.87
2022-08-25T16:56:57.572Z,29.90
2022-08-25T16:59:25.428Z,29.98
2022-08-25T17:01:53.144Z,30.04
2022-08-25T17:04:20.675Z,30.04
2022-08-25T17:06:49.530Z,29.99
2022-08-25T17:09:23.864Z,29.89
2022-08-25T17:11:52.511Z,29.84
2022-08-25T17:14:21.168Z,29.78
2022-08-25T17:16:48.547Z,29.70
2022-08-25T17:19:18.934Z,29.63
2022-08-25T17:21:46.520Z,29.49
2022-08-25T17:24:13.873Z,29.41
2022-08-25T17:26:42.300Z,29.35
2022-08-25T17:29:10.300Z,29.25
2022-08-25T17:31:39.714Z,29.17
2022-08-25T17:34:08.641Z,29.09
2022-08-25T17:36:35.504Z,29.02
2022-08-25T17:39:03.764Z,28.97
2022-08-25T17:41:30.402Z,28.92
2022-08-25T17:43:57.143Z,28.85
2022-08-25T17:46:24.017Z,28.76
2022-08-25T17:48:51.078Z,28.69
2022-08-25T17:51:18.025Z,28.68
2022-08-25T17:53:44.764Z,28.68
2022-08-25T17:56:16.227Z,28.65
2022-08-25T17:58:42.999Z,28.61
2022-08-25T18:01:17.310Z,28.56
2022-08-25T18:03:44.212Z,28.47
2022-08-25T18:06:15.070Z,28.36
2022-08-25T18:08:43.888Z,28.26
2022-08-25T18:11:10.557Z,28.17
2022-08-25T18:13:38.804Z,28.08
2022-08-25T18:16:05.825Z,27.97
2022-08-25T18:18:34.507Z,27.82
2022-08-25T18:21:02.419Z,27.70
2022-08-25T18:23:29.798Z,27.65
2022-08-25T18:26:01.002Z,27.63
2022-08-25T18:28:28.770Z,27.58
2022-08-25T18:30:55.830Z,27.50
2022-08-25T18:33:22.915Z,27.45
2022-08-25T18:35:49.555Z,27.38
2022-08-25T18:38:45.436Z,27.32
2022-08-25T18:41:12.691Z,27.15
2022-08-25T18:43:39.284Z,27.12
2022-08-25T18:46:06.522Z,27.08
2022-08-25T18:48:34.897Z,27.01
2022-08-25T18:51:02.419Z,26.87
2022-08-25T18:53:37.403Z,26.77
2022-08-25T18:56:16.489Z,26.77
2022-08-25T18:58:42.968Z,26.77
2022-08-25T19:01:13.551Z,26.73
2022-08-25T19:03:40.171Z,26.71
2022-08-25T19:06:07.072Z,26.64
2022-08-25T19:08:33.712Z,26.57
2022-08-25T19:11:00.218Z,26.54
2022-08-25T19:13:26.724Z,26.51
2022-08-25T19:15:53.429Z,26.43
2022-08-25T19:18:26.182Z,26.33
2022-08-25T19:20:55.861Z,26.27
2022-08-25T19:23:22.427Z,26.20
2022-08-25T19:25:48.920Z,26.15
2022-08-25T19:28:16.312Z,26.14
2022-08-25T19:30:46.423Z,26.04
2022-08-25T19:33:42.302Z,25.98
2022-08-25T19:36:06.301Z,26.00
2022-08-25T19:38:37.512Z,25.99
2022-08-25T19:41:09.399Z,25.91
2022-08-25T19:43:50.592Z,25.87
2022-08-25T19:46:23.493Z,25.80
2022-08-25T19:48:50.482Z,25.76
2022-08-25T19:51:19.383Z,25.72
2022-08-25T19:53:54.303Z,25.52
2022-08-25T19:56:22.376Z,25.39
2022-08-25T19:58:49.024Z,25.19
2022-08-25T20:01:18.045Z,25.25
2022-08-25T20:03:44.915Z,25.23
2022-08-25T20:06:11.403Z,25.18
2022-08-25T20:08:37.928Z,25.16
2022-08-25T20:11:04.507Z,25.13
2022-08-25T20:13:31.091Z,25.09
2022-08-25T20:15:58.810Z,25.02
2022-08-25T20:18:25.562Z,25.01
2022-08-25T20:20:52.543Z,24.97
2022-08-25T20:23:37.577Z,24.91
2022-08-25T20:26:05.343Z,24.88
2022-08-25T20:28:31.854Z,24.83
2022-08-25T20:30:59.635Z,24.80
2022-08-25T20:33:26.625Z,24.76
2022-08-25T20:35:53.439Z,24.74
2022-08-25T20:38:19.941Z,24.76
2022-08-25T20:40:46.701Z,24.79
2022-08-25T20:43:15.333Z,24.77
2022-08-25T20:45:42.139Z,24.69
2022-08-25T20:48:09.558Z,24.55
2022-08-25T20:50:38.768Z,24.30
2022-08-25T20:53:05.677Z,24.16
2022-08-25T20:55:42.559Z,24.19
2022-08-25T20:58:10.206Z,24.27
2022-08-25T21:00:37.012Z,24.19
2022-08-25T21:03:03.721Z,24.15
2022-08-25T21:05:30.161Z,24.04
2022-08-25T21:07:58.197Z,23.93
2022-08-25T21:10:24.701Z,24.00
2022-08-25T21:12:53.314Z,23.98
2022-08-25T21:15:20.369Z,23.91
2022-08-25T21:17:54.426Z,23.85
2022-08-25T21:20:23.764Z,23.95
2022-08-25T21:22:51.085Z,23.92
2022-08-25T21:25:20.376Z,24.02
2022-08-25T21:27:47.932Z,24.08
2022-08-25T21:30:16.021Z,23.99
2022-08-25T21:32:53.058Z,23.78
2022-08-25T21:35:21.189Z,23.83
2022-08-25T21:37:49.320Z,23.86
2022-08-25T21:40:20.502Z,23.83
2022-08-25T21:42:47.044Z,23.85
2022-08-25T21:45:14.072Z,23.88
2022-08-25T21:47:42.547Z,23.71
2022-08-25T21:50:10.814Z,23.67
2022-08-25T21:52:37.401Z,23.56
2022-08-25T21:55:05.300Z,23.53
2022-08-25T21:57:32.272Z,23.48
2022-08-25T22:00:06.901Z,23.40
2022-08-25T22:02:35.542Z,23.45
2022-08-25T22:05:02.037Z,23.48
2022-08-25T22:07:29.245Z,23.34
2022-08-25T22:10:01.271Z,23.37
2022-08-25T22:12:27.780Z,23.36
2022-08-25T22:14:54.413Z,23.32
2022-08-25T22:17:24.385Z,23.19
2022-08-25T22:19:53.675Z,23.15
2022-08-25T22:22:21.028Z,23.08
2022-08-25T22:24:47.694Z,23.01
2022-08-25T22:27:15.849Z,22.99
2022-08-25T22:29:44.045Z,22.98
2022-08-25T22:32:10.750Z,22.99
2022-08-25T22:34:40.734Z,23.08
2022-08-25T22:37:10.076Z,23.09
2022-08-25T22:39:36.788Z,23.02
2022-08-25T22:42:07.450Z,23.05
2022-08-25T22:44:33.980Z,23.01
2022-08-25T22:47:00.412Z,22.96
2022-08-25T22:49:28.872Z,22.99
2022-08-25T22:51:55.463Z,23.09
2022-08-25T22:54:22.843Z,23.10
2022-08-25T22:56:50.420Z,23.05
2022-08-25T22:59:16.929Z,22.93
2022-08-25T23:01:45.168Z,22.81
2022-08-25T23:04:11.999Z,22.87
2022-08-25T23:06:39.407Z,22.86
2022-08-25T23:09:08.030Z,22.74
2022-08-25T23:11:38.748Z,22.64
2022-08-25T23:14:08.256Z,22.62
2022-08-25T23:16:34.916Z,22.66
2022-08-25T23:19:01.797Z,22.72
2022-08-25T23:21:47.544Z,22.58
2022-08-25T23:24:29.472Z,22.54
2022-08-25T23:26:58.877Z,22.52
2022-08-25T23:29:25.398Z,22.44
2022-08-25T23:31:52.128Z,22.46
2022-08-25T23:34:21.639Z,22.46
2022-08-25T23:36:48.785Z,22.37
2022-08-25T23:39:15.365Z,22.05
2022-08-25T23:41:42.163Z,22.00
2022-08-25T23:44:11.870Z,22.05
2022-08-25T23:46:44.457Z,22.26
2022-08-25T23:49:11.146Z,22.39
2022-08-25T23:51:38.057Z,22.38
2022-08-25T23:54:09.270Z,22.49
2022-08-25T23:56:37.030Z,22.60
2022-08-25T23:59:10.626Z,22.61
